sensor_id;sensor_type;location;lat;lon;timestamp;temperature;humidity
60287;DHT22;46141;52.382;5.270;2022-08-19T00:01:09;26.40;74.60
60287;DHT22;46141;52.382;5.270;2022-08-19T00:03:34;26.40;74.60
60287;DHT22;46141;52.382;5.270;2022-08-19T00:06:00;26.40;74.60
60287;DHT22;46141;52.382;5.270;2022-08-19T00:08:25;26.30;75.10
60287;DHT22;46141;52.382;5.270;2022-08-19T00:10:51;26.30;74.60
60287;DHT22;46141;52.382;5.270;2022-08-19T00:13:16;26.30;74.60
60287;DHT22;46141;52.382;5.270;2022-08-19T00:15:42;26.30;74.60
60287;DHT22;46141;52.382;5.270;2022-08-19T00:18:07;26.30;74.70
60287;DHT22;46141;52.382;5.270;2022-08-19T00:20:34;26.30;74.60
60287;DHT22;46141;52.382;5.270;2022-08-19T00:22:59;26.30;74.50
60287;DHT22;46141;52.382;5.270;2022-08-19T00:25:25;26.30;74.40
60287;DHT22;46141;52.382;5.270;2022-08-19T00:27:50;26.30;74.50
60287;DHT22;46141;52.382;5.270;2022-08-19T00:30:16;26.30;74.40
60287;DHT22;46141;52.382;5.270;2022-08-19T00:32:42;26.30;74.50
60287;DHT22;46141;52.382;5.270;2022-08-19T00:35:08;26.30;74.40
60287;DHT22;46141;52.382;5.270;2022-08-19T00:37:34;26.20;74.40
60287;DHT22;46141;52.382;5.270;2022-08-19T00:40:00;26.30;74.60
60287;DHT22;46141;52.382;5.270;2022-08-19T00:42:25;26.20;74.60
60287;DHT22;46141;52.382;5.270;2022-08-19T00:44:51;26.20;74.50
60287;DHT22;46141;52.382;5.270;2022-08-19T00:47:16;26.20;74.50
60287;DHT22;46141;52.382;5.270;2022-08-19T00:49:54;26.20;74.40
60287;DHT22;46141;52.382;5.270;2022-08-19T00:52:32;26.20;74.40
60287;DHT22;46141;52.382;5.270;2022-08-19T00:55:00;26.20;74.40
60287;DHT22;46141;52.382;5.270;2022-08-19T00:57:32;26.20;74.30
60287;DHT22;46141;52.382;5.270;2022-08-19T01:00:01;26.20;74.30
60287;DHT22;46141;52.382;5.270;2022-08-19T01:02:28;26.20;74.30
60287;DHT22;46141;52.382;5.270;2022-08-19T01:04:54;26.20;74.30
60287;DHT22;46141;52.382;5.270;2022-08-19T01:07:20;26.20;74.40
60287;DHT22;46141;52.382;5.270;2022-08-19T01:09:46;26.20;74.40
60287;DHT22;46141;52.382;5.270;2022-08-19T01:12:12;26.20;74.50
60287;DHT22;46141;52.382;5.270;2022-08-19T01:14:39;26.20;74.50
60287;DHT22;46141;52.382;5.270;2022-08-19T01:17:07;26.20;74.50
60287;DHT22;46141;52.382;5.270;2022-08-19T01:19:37;26.10;74.20
60287;DHT22;46141;52.382;5.270;2022-08-19T01:22:30;26.10;74.20
60287;DHT22;46141;52.382;5.270;2022-08-19T01:24:57;26.10;74.20
60287;DHT22;46141;52.382;5.270;2022-08-19T01:27:23;26.10;74.20
60287;DHT22;46141;52.382;5.270;2022-08-19T01:29:48;26.10;74.20
60287;DHT22;46141;52.382;5.270;2022-08-19T01:32:16;26.10;74.20
60287;DHT22;46141;52.382;5.270;2022-08-19T01:34:41;26.10;74.20
60287;DHT22;46141;52.382;5.270;2022-08-19T01:37:11;26.10;74.20
60287;DHT22;46141;52.382;5.270;2022-08-19T01:39:39;26.10;74.30
60287;DHT22;46141;52.382;5.270;2022-08-19T01:42:06;26.00;74.20
60287;DHT22;46141;52.382;5.270;2022-08-19T01:44:32;26.00;74.30
60287;DHT22;46141;52.382;5.270;2022-08-19T01:46:57;26.00;74.30
60287;DHT22;46141;52.382;5.270;2022-08-19T01:49:24;26.00;74.30
60287;DHT22;46141;52.382;5.270;2022-08-19T01:51:51;26.00;74.30
60287;DHT22;46141;52.382;5.270;2022-08-19T01:54:18;26.00;74.30
60287;DHT22;46141;52.382;5.270;2022-08-19T01:56:44;26.00;74.30
60287;DHT22;46141;52.382;5.270;2022-08-19T01:59:17;26.00;74.30
60287;DHT22;46141;52.382;5.270;2022-08-19T02:01:44;26.00;74.30
60287;DHT22;46141;52.382;5.270;2022-08-19T02:04:10;26.00;74.20
60287;DHT22;46141;52.382;5.270;2022-08-19T02:06:35;25.90;74.20
60287;DHT22;46141;52.382;5.270;2022-08-19T02:09:03;25.90;74.20
60287;DHT22;46141;52.382;5.270;2022-08-19T02:11:31;25.90;74.20
60287;DHT22;46141;52.382;5.270;2022-08-19T02:13:58;25.90;74.20
60287;DHT22;46141;52.382;5.270;2022-08-19T02:16:24;25.90;74.20
60287;DHT22;46141;52.382;5.270;2022-08-19T02:18:50;25.90;74.20
60287;DHT22;46141;52.382;5.270;2022-08-19T02:21:18;25.80;74.10
60287;DHT22;46141;52.382;5.270;2022-08-19T02:23:44;25.80;74.10
60287;DHT22;46141;52.382;5.270;2022-08-19T02:26:11;25.90;74.10
60287;DHT22;46141;52.382;5.270;2022-08-19T02:28:37;25.90;74.20
60287;DHT22;46141;52.382;5.270;2022-08-19T02:31:03;25.80;74.10
60287;DHT22;46141;52.382;5.270;2022-08-19T02:33:29;25.80;74.10
60287;DHT22;46141;52.382;5.270;2022-08-19T02:35:55;25.80;74.10
60287;DHT22;46141;52.382;5.270;2022-08-19T02:38:20;25.80;74.70
60287;DHT22;46141;52.382;5.270;2022-08-19T02:40:51;25.80;74.10
60287;DHT22;46141;52.382;5.270;2022-08-19T02:43:16;25.80;74.10
60287;DHT22;46141;52.382;5.270;2022-08-19T02:45:42;25.80;74.10
60287;DHT22;46141;52.382;5.270;2022-08-19T02:48:08;25.80;74.00
60287;DHT22;46141;52.382;5.270;2022-08-19T02:50:38;25.80;74.10
60287;DHT22;46141;52.382;5.270;2022-08-19T02:53:03;25.80;74.10
60287;DHT22;46141;52.382;5.270;2022-08-19T02:55:29;25.80;74.10
60287;DHT22;46141;52.382;5.270;2022-08-19T02:57:54;25.80;74.00
60287;DHT22;46141;52.382;5.270;2022-08-19T03:00:20;25.80;74.00
60287;DHT22;46141;52.382;5.270;2022-08-19T03:02:45;25.80;73.90
60287;DHT22;46141;52.382;5.270;2022-08-19T03:05:11;25.70;74.00
60287;DHT22;46141;52.382;5.270;2022-08-19T03:07:37;25.70;74.00
60287;DHT22;46141;52.382;5.270;2022-08-19T03:10:04;25.70;73.90
60287;DHT22;46141;52.382;5.270;2022-08-19T03:12:30;25.70;73.80
60287;DHT22;46141;52.382;5.270;2022-08-19T03:14:55;25.70;73.80
60287;DHT22;46141;52.382;5.270;2022-08-19T03:17:21;25.70;73.80
60287;DHT22;46141;52.382;5.270;2022-08-19T03:19:46;25.70;73.80
60287;DHT22;46141;52.382;5.270;2022-08-19T03:22:12;25.70;73.80
60287;DHT22;46141;52.382;5.270;2022-08-19T03:24:38;25.70;73.80
60287;DHT22;46141;52.382;5.270;2022-08-19T03:27:03;25.60;73.80
60287;DHT22;46141;52.382;5.270;2022-08-19T03:29:30;25.70;73.80
60287;DHT22;46141;52.382;5.270;2022-08-19T03:31:57;25.60;73.80
60287;DHT22;46141;52.382;5.270;2022-08-19T03:34:26;25.60;73.70
60287;DHT22;46141;52.382;5.270;2022-08-19T03:36:54;25.60;73.60
60287;DHT22;46141;52.382;5.270;2022-08-19T03:39:21;25.60;73.60
60287;DHT22;46141;52.382;5.270;2022-08-19T03:41:48;25.60;73.60
60287;DHT22;46141;52.382;5.270;2022-08-19T03:44:16;25.60;73.70
60287;DHT22;46141;52.382;5.270;2022-08-19T03:46:43;25.60;73.60
60287;DHT22;46141;52.382;5.270;2022-08-19T03:49:09;25.60;73.60
60287;DHT22;46141;52.382;5.270;2022-08-19T03:51:37;25.60;73.60
60287;DHT22;46141;52.382;5.270;2022-08-19T03:54:06;25.60;74.20
60287;DHT22;46141;52.382;5.270;2022-08-19T03:56:35;25.60;73.60
60287;DHT22;46141;52.382;5.270;2022-08-19T03:59:03;25.50;73.60
60287;DHT22;46141;52.382;5.270;2022-08-19T04:01:29;25.50;73.60
60287;DHT22;46141;52.382;5.270;2022-08-19T04:03:56;25.60;73.70
60287;DHT22;46141;52.382;5.270;2022-08-19T04:06:28;25.50;73.50
60287;DHT22;46141;52.382;5.270;2022-08-19T04:08:56;25.60;73.60
60287;DHT22;46141;52.382;5.270;2022-08-19T04:11:25;25.50;73.50
60287;DHT22;46141;52.382;5.270;2022-08-19T04:13:53;25.50;73.40
60287;DHT22;46141;52.382;5.270;2022-08-19T04:16:20;25.50;73.50
60287;DHT22;46141;52.382;5.270;2022-08-19T04:18:47;25.50;73.50
60287;DHT22;46141;52.382;5.270;2022-08-19T04:21:24;25.50;73.40
60287;DHT22;46141;52.382;5.270;2022-08-19T04:23:51;25.50;73.50
60287;DHT22;46141;52.382;5.270;2022-08-19T04:26:20;25.50;73.50
60287;DHT22;46141;52.382;5.270;2022-08-19T04:28:46;25.50;73.50
60287;DHT22;46141;52.382;5.270;2022-08-19T04:31:19;25.50;73.50
60287;DHT22;46141;52.382;5.270;2022-08-19T04:33:45;25.50;73.50
60287;DHT22;46141;52.382;5.270;2022-08-19T04:36:23;25.50;73.60
60287;DHT22;46141;52.382;5.270;2022-08-19T04:38:53;25.50;73.50
60287;DHT22;46141;52.382;5.270;2022-08-19T04:41:19;25.50;73.50
60287;DHT22;46141;52.382;5.270;2022-08-19T04:43:45;25.50;73.50
60287;DHT22;46141;52.382;5.270;2022-08-19T04:46:12;25.50;73.50
60287;DHT22;46141;52.382;5.270;2022-08-19T04:48:39;25.50;73.50
60287;DHT22;46141;52.382;5.270;2022-08-19T04:51:11;25.40;73.40
60287;DHT22;46141;52.382;5.270;2022-08-19T04:53:38;25.50;73.50
60287;DHT22;46141;52.382;5.270;2022-08-19T04:56:13;25.40;73.40
60287;DHT22;46141;52.382;5.270;2022-08-19T04:58:40;25.50;73.50
60287;DHT22;46141;52.382;5.270;2022-08-19T05:01:06;25.40;73.40
60287;DHT22;46141;52.382;5.270;2022-08-19T05:03:32;25.40;73.50
60287;DHT22;46141;52.382;5.270;2022-08-19T05:05:58;25.40;73.40
60287;DHT22;46141;52.382;5.270;2022-08-19T05:08:23;25.40;74.10
60287;DHT22;46141;52.382;5.270;2022-08-19T05:10:51;25.40;73.50
60287;DHT22;46141;52.382;5.270;2022-08-19T05:13:18;25.40;73.40
60287;DHT22;46141;52.382;5.270;2022-08-19T05:15:52;25.40;73.30
60287;DHT22;46141;52.382;5.270;2022-08-19T05:18:18;25.40;73.40
60287;DHT22;46141;52.382;5.270;2022-08-19T05:20:44;25.40;73.40
60287;DHT22;46141;52.382;5.270;2022-08-19T05:23:11;25.40;73.40
60287;DHT22;46141;52.382;5.270;2022-08-19T05:25:39;25.40;73.40
60287;DHT22;46141;52.382;5.270;2022-08-19T05:28:05;25.40;73.40
60287;DHT22;46141;52.382;5.270;2022-08-19T05:30:30;25.40;73.40
60287;DHT22;46141;52.382;5.270;2022-08-19T05:32:56;25.40;73.40
60287;DHT22;46141;52.382;5.270;2022-08-19T05:35:21;25.40;73.40
60287;DHT22;46141;52.382;5.270;2022-08-19T05:37:47;25.40;73.30
60287;DHT22;46141;52.382;5.270;2022-08-19T05:40:12;25.40;73.40
60287;DHT22;46141;52.382;5.270;2022-08-19T05:42:38;25.40;73.40
60287;DHT22;46141;52.382;5.270;2022-08-19T05:45:04;25.30;73.40
60287;DHT22;46141;52.382;5.270;2022-08-19T05:47:30;25.40;73.40
60287;DHT22;46141;52.382;5.270;2022-08-19T05:49:55;25.30;73.40
60287;DHT22;46141;52.382;5.270;2022-08-19T05:52:21;25.30;73.50
60287;DHT22;46141;52.382;5.270;2022-08-19T05:54:46;25.30;73.40
60287;DHT22;46141;52.382;5.270;2022-08-19T05:57:12;25.40;73.50
60287;DHT22;46141;52.382;5.270;2022-08-19T05:59:37;25.30;73.50
60287;DHT22;46141;52.382;5.270;2022-08-19T06:02:04;25.40;73.50
60287;DHT22;46141;52.382;5.270;2022-08-19T06:04:30;25.30;73.40
60287;DHT22;46141;52.382;5.270;2022-08-19T06:06:55;25.30;73.40
60287;DHT22;46141;52.382;5.270;2022-08-19T06:09:22;25.30;73.50
60287;DHT22;46141;52.382;5.270;2022-08-19T06:11:51;25.30;73.40
60287;DHT22;46141;52.382;5.270;2022-08-19T06:14:20;25.30;73.40
60287;DHT22;46141;52.382;5.270;2022-08-19T06:16:46;25.40;73.40
60287;DHT22;46141;52.382;5.270;2022-08-19T06:19:14;25.30;73.40
60287;DHT22;46141;52.382;5.270;2022-08-19T06:21:42;25.40;73.50
60287;DHT22;46141;52.382;5.270;2022-08-19T06:24:11;25.40;73.50
60287;DHT22;46141;52.382;5.270;2022-08-19T06:26:40;25.30;74.10
60287;DHT22;46141;52.382;5.270;2022-08-19T06:29:09;25.40;75.00
60287;DHT22;46141;52.382;5.270;2022-08-19T06:31:35;25.30;75.40
60287;DHT22;46141;52.382;5.270;2022-08-19T06:34:04;25.30;76.00
60287;DHT22;46141;52.382;5.270;2022-08-19T06:36:36;25.30;76.30
60287;DHT22;46141;52.382;5.270;2022-08-19T06:39:05;25.30;76.50
60287;DHT22;46141;52.382;5.270;2022-08-19T06:41:40;25.30;77.10
60287;DHT22;46141;52.382;5.270;2022-08-19T06:44:06;25.30;77.50
60287;DHT22;46141;52.382;5.270;2022-08-19T06:46:32;25.30;77.90
60287;DHT22;46141;52.382;5.270;2022-08-19T06:48:59;25.30;78.00
60287;DHT22;46141;52.382;5.270;2022-08-19T06:51:25;25.30;78.30
60287;DHT22;46141;52.382;5.270;2022-08-19T06:53:54;25.30;78.40
60287;DHT22;46141;52.382;5.270;2022-08-19T06:56:26;25.30;78.60
60287;DHT22;46141;52.382;5.270;2022-08-19T06:58:52;25.30;79.50
60287;DHT22;46141;52.382;5.270;2022-08-19T07:01:19;25.30;79.20
60287;DHT22;46141;52.382;5.270;2022-08-19T07:03:45;25.30;79.20
60287;DHT22;46141;52.382;5.270;2022-08-19T07:06:15;25.30;79.50
60287;DHT22;46141;52.382;5.270;2022-08-19T07:08:41;25.30;79.70
60287;DHT22;46141;52.382;5.270;2022-08-19T07:11:09;25.20;79.80
60287;DHT22;46141;52.382;5.270;2022-08-19T07:13:35;25.20;79.90
60287;DHT22;46141;52.382;5.270;2022-08-19T07:16:06;25.20;80.00
60287;DHT22;46141;52.382;5.270;2022-08-19T07:18:32;25.20;80.00
60287;DHT22;46141;52.382;5.270;2022-08-19T07:21:11;25.20;80.10
60287;DHT22;46141;52.382;5.270;2022-08-19T07:23:37;25.20;80.30
60287;DHT22;46141;52.382;5.270;2022-08-19T07:26:24;25.20;80.40
60287;DHT22;46141;52.382;5.270;2022-08-19T07:28:50;25.20;80.40
60287;DHT22;46141;52.382;5.270;2022-08-19T07:31:22;25.20;80.40
60287;DHT22;46141;52.382;5.270;2022-08-19T07:33:50;25.20;80.40
60287;DHT22;46141;52.382;5.270;2022-08-19T07:36:20;25.20;80.50
60287;DHT22;46141;52.382;5.270;2022-08-19T07:38:48;25.20;80.60
60287;DHT22;46141;52.382;5.270;2022-08-19T07:41:18;25.20;80.70
60287;DHT22;46141;52.382;5.270;2022-08-19T07:43:44;25.20;80.80
60287;DHT22;46141;52.382;5.270;2022-08-19T07:46:10;25.20;80.80
60287;DHT22;46141;52.382;5.270;2022-08-19T07:48:37;25.20;81.00
60287;DHT22;46141;52.382;5.270;2022-08-19T07:51:08;25.10;81.10
60287;DHT22;46141;52.382;5.270;2022-08-19T07:53:35;25.20;81.20
60287;DHT22;46141;52.382;5.270;2022-08-19T07:56:02;25.20;81.20
60287;DHT22;46141;52.382;5.270;2022-08-19T07:58:28;25.20;81.20
60287;DHT22;46141;52.382;5.270;2022-08-19T08:00:53;25.10;81.10
60287;DHT22;46141;52.382;5.270;2022-08-19T08:03:22;25.20;81.10
60287;DHT22;46141;52.382;5.270;2022-08-19T08:05:47;25.20;81.20
60287;DHT22;46141;52.382;5.270;2022-08-19T08:08:13;25.20;81.30
60287;DHT22;46141;52.382;5.270;2022-08-19T08:10:39;25.20;81.40
60287;DHT22;46141;52.382;5.270;2022-08-19T08:13:04;25.20;81.40
60287;DHT22;46141;52.382;5.270;2022-08-19T08:15:30;25.20;81.50
60287;DHT22;46141;52.382;5.270;2022-08-19T08:17:56;25.20;81.50
60287;DHT22;46141;52.382;5.270;2022-08-19T08:20:21;25.20;81.60
60287;DHT22;46141;52.382;5.270;2022-08-19T08:22:47;25.20;81.70
60287;DHT22;46141;52.382;5.270;2022-08-19T08:25:20;25.20;81.80
60287;DHT22;46141;52.382;5.270;2022-08-19T08:27:47;25.20;81.80
60287;DHT22;46141;52.382;5.270;2022-08-19T08:30:17;25.20;81.80
60287;DHT22;46141;52.382;5.270;2022-08-19T08:32:43;25.20;81.70
60287;DHT22;46141;52.382;5.270;2022-08-19T08:35:12;25.20;81.70
60287;DHT22;46141;52.382;5.270;2022-08-19T08:37:39;25.20;81.60
60287;DHT22;46141;52.382;5.270;2022-08-19T08:40:29;25.20;81.60
60287;DHT22;46141;52.382;5.270;2022-08-19T08:43:02;25.30;81.70
60287;DHT22;46141;52.382;5.270;2022-08-19T08:45:30;25.30;81.70
60287;DHT22;46141;52.382;5.270;2022-08-19T08:48:15;25.30;81.70
60287;DHT22;46141;52.382;5.270;2022-08-19T08:50:46;25.30;81.70
60287;DHT22;46141;52.382;5.270;2022-08-19T08:53:17;25.30;81.80
60287;DHT22;46141;52.382;5.270;2022-08-19T08:55:44;25.30;81.80
60287;DHT22;46141;52.382;5.270;2022-08-19T08:58:17;25.30;81.80
60287;DHT22;46141;52.382;5.270;2022-08-19T09:00:48;25.30;81.70
60287;DHT22;46141;52.382;5.270;2022-08-19T09:03:21;25.30;81.70
60287;DHT22;46141;52.382;5.270;2022-08-19T09:06:03;25.30;81.70
60287;DHT22;46141;52.382;5.270;2022-08-19T09:08:48;25.30;81.80
60287;DHT22;46141;52.382;5.270;2022-08-19T09:16:36;25.40;81.70
60287;DHT22;46141;52.382;5.270;2022-08-19T09:19:04;25.40;81.70
60287;DHT22;46141;52.382;5.270;2022-08-19T09:21:31;25.40;81.40
60287;DHT22;46141;52.382;5.270;2022-08-19T09:23:56;25.40;81.60
60287;DHT22;46141;52.382;5.270;2022-08-19T09:26:23;25.40;81.50
60287;DHT22;46141;52.382;5.270;2022-08-19T09:28:51;25.50;81.90
60287;DHT22;46141;52.382;5.270;2022-08-19T09:31:21;25.50;81.80
60287;DHT22;46141;52.382;5.270;2022-08-19T09:33:47;25.50;81.80
60287;DHT22;46141;52.382;5.270;2022-08-19T09:36:15;25.50;82.00
60287;DHT22;46141;52.382;5.270;2022-08-19T09:38:41;25.50;82.00
60287;DHT22;46141;52.382;5.270;2022-08-19T09:41:10;25.50;82.00
60287;DHT22;46141;52.382;5.270;2022-08-19T09:43:36;25.50;82.00
60287;DHT22;46141;52.382;5.270;2022-08-19T09:46:02;25.50;82.00
60287;DHT22;46141;52.382;5.270;2022-08-19T09:48:28;25.60;81.90
60287;DHT22;46141;52.382;5.270;2022-08-19T09:50:54;25.60;81.90
60287;DHT22;46141;52.382;5.270;2022-08-19T09:53:20;25.50;81.80
60287;DHT22;46141;52.382;5.270;2022-08-19T09:55:45;25.60;81.80
60287;DHT22;46141;52.382;5.270;2022-08-19T09:58:11;25.60;81.90
60287;DHT22;46141;52.382;5.270;2022-08-19T10:00:39;25.60;81.70
60287;DHT22;46141;52.382;5.270;2022-08-19T10:03:05;25.60;81.70
60287;DHT22;46141;52.382;5.270;2022-08-19T10:05:30;25.60;81.50
60287;DHT22;46141;52.382;5.270;2022-08-19T10:07:56;25.60;81.50
60287;DHT22;46141;52.382;5.270;2022-08-19T10:10:21;25.70;81.70
60287;DHT22;46141;52.382;5.270;2022-08-19T10:12:47;25.70;81.80
60287;DHT22;46141;52.382;5.270;2022-08-19T10:15:13;25.60;81.60
60287;DHT22;46141;52.382;5.270;2022-08-19T10:17:38;25.70;81.60
60287;DHT22;46141;52.382;5.270;2022-08-19T10:20:04;25.70;81.50
60287;DHT22;46141;52.382;5.270;2022-08-19T10:22:30;25.70;81.40
60287;DHT22;46141;52.382;5.270;2022-08-19T10:24:55;25.70;81.20
60287;DHT22;46141;52.382;5.270;2022-08-19T10:27:22;25.80;81.40
60287;DHT22;46141;52.382;5.270;2022-08-19T10:29:47;25.70;81.40
60287;DHT22;46141;52.382;5.270;2022-08-19T10:32:13;25.80;81.60
60287;DHT22;46141;52.382;5.270;2022-08-19T10:34:39;25.80;81.70
60287;DHT22;46141;52.382;5.270;2022-08-19T10:37:05;25.80;82.20
60287;DHT22;46141;52.382;5.270;2022-08-19T10:39:33;25.80;82.30
60287;DHT22;46141;52.382;5.270;2022-08-19T10:42:03;25.80;83.10
60287;DHT22;46141;52.382;5.270;2022-08-19T10:44:29;25.80;82.20
60287;DHT22;46141;52.382;5.270;2022-08-19T10:46:54;25.80;82.40
60287;DHT22;46141;52.382;5.270;2022-08-19T10:49:20;25.80;82.50
60287;DHT22;46141;52.382;5.270;2022-08-19T10:51:45;25.80;82.60
60287;DHT22;46141;52.382;5.270;2022-08-19T10:54:11;25.80;82.80
60287;DHT22;46141;52.382;5.270;2022-08-19T10:56:36;25.80;82.60
60287;DHT22;46141;52.382;5.270;2022-08-19T10:59:02;25.80;82.30
60287;DHT22;46141;52.382;5.270;2022-08-19T11:01:30;25.80;82.50
60287;DHT22;46141;52.382;5.270;2022-08-19T11:03:59;25.90;82.70
60287;DHT22;46141;52.382;5.270;2022-08-19T11:06:25;25.80;82.40
60287;DHT22;46141;52.382;5.270;2022-08-19T11:08:52;25.90;82.60
60287;DHT22;46141;52.382;5.270;2022-08-19T11:11:18;25.80;82.40
60287;DHT22;46141;52.382;5.270;2022-08-19T11:13:44;25.80;82.30
60287;DHT22;46141;52.382;5.270;2022-08-19T11:16:12;25.90;82.50
60287;DHT22;46141;52.382;5.270;2022-08-19T11:18:44;25.80;82.30
60287;DHT22;46141;52.382;5.270;2022-08-19T11:21:16;25.90;82.20
60287;DHT22;46141;52.382;5.270;2022-08-19T11:23:41;25.80;81.90
60287;DHT22;46141;52.382;5.270;2022-08-19T11:26:07;25.80;82.00
60287;DHT22;46141;52.382;5.270;2022-08-19T11:28:32;25.80;82.20
60287;DHT22;46141;52.382;5.270;2022-08-19T11:30:58;25.80;82.30
60287;DHT22;46141;52.382;5.270;2022-08-19T11:33:24;25.80;82.10
60287;DHT22;46141;52.382;5.270;2022-08-19T11:35:49;25.80;82.10
60287;DHT22;46141;52.382;5.270;2022-08-19T11:38:15;25.80;82.70
60287;DHT22;46141;52.382;5.270;2022-08-19T11:40:40;25.80;82.60
60287;DHT22;46141;52.382;5.270;2022-08-19T11:43:06;25.90;82.90
60287;DHT22;46141;52.382;5.270;2022-08-19T11:45:31;25.90;82.20
60287;DHT22;46141;52.382;5.270;2022-08-19T11:47:57;25.90;81.80
60287;DHT22;46141;52.382;5.270;2022-08-19T11:50:23;25.80;81.30
60287;DHT22;46141;52.382;5.270;2022-08-19T11:52:49;25.90;81.00
60287;DHT22;46141;52.382;5.270;2022-08-19T11:55:15;25.90;81.20
60287;DHT22;46141;52.382;5.270;2022-08-19T11:57:41;25.90;80.40
60287;DHT22;46141;52.382;5.270;2022-08-19T12:00:08;26.00;80.00
60287;DHT22;46141;52.382;5.270;2022-08-19T12:02:34;26.00;80.20
60287;DHT22;46141;52.382;5.270;2022-08-19T12:04:59;26.00;79.40
60287;DHT22;46141;52.382;5.270;2022-08-19T12:07:25;26.00;79.20
60287;DHT22;46141;52.382;5.270;2022-08-19T12:09:50;26.00;79.10
60287;DHT22;46141;52.382;5.270;2022-08-19T12:12:16;26.00;78.70
60287;DHT22;46141;52.382;5.270;2022-08-19T12:14:41;26.10;78.90
60287;DHT22;46141;52.382;5.270;2022-08-19T12:17:07;26.00;79.00
60287;DHT22;46141;52.382;5.270;2022-08-19T12:19:33;26.10;79.20
60287;DHT22;46141;52.382;5.270;2022-08-19T12:22:00;26.10;79.00
60287;DHT22;46141;52.382;5.270;2022-08-19T12:24:25;26.10;78.90
60287;DHT22;46141;52.382;5.270;2022-08-19T12:26:51;26.10;78.90
60287;DHT22;46141;52.382;5.270;2022-08-19T12:29:17;26.10;79.10
60287;DHT22;46141;52.382;5.270;2022-08-19T12:31:42;26.10;79.30
60287;DHT22;46141;52.382;5.270;2022-08-19T12:34:08;26.10;79.10
60287;DHT22;46141;52.382;5.270;2022-08-19T12:36:33;26.10;78.90
60287;DHT22;46141;52.382;5.270;2022-08-19T12:38:59;26.10;78.80
60287;DHT22;46141;52.382;5.270;2022-08-19T12:41:25;26.10;79.30
60287;DHT22;46141;52.382;5.270;2022-08-19T12:43:51;26.10;79.40
60287;DHT22;46141;52.382;5.270;2022-08-19T12:46:18;26.10;79.30
60287;DHT22;46141;52.382;5.270;2022-08-19T12:48:45;26.10;79.10
60287;DHT22;46141;52.382;5.270;2022-08-19T12:51:14;26.10;79.20
60287;DHT22;46141;52.382;5.270;2022-08-19T12:53:41;26.10;79.50
60287;DHT22;46141;52.382;5.270;2022-08-19T12:56:09;26.10;79.30
60287;DHT22;46141;52.382;5.270;2022-08-19T12:58:34;26.10;79.10
60287;DHT22;46141;52.382;5.270;2022-08-19T13:01:06;26.20;79.50
60287;DHT22;46141;52.382;5.270;2022-08-19T13:03:32;26.10;79.80
60287;DHT22;46141;52.382;5.270;2022-08-19T13:05:57;26.20;79.40
60287;DHT22;46141;52.382;5.270;2022-08-19T13:08:23;26.10;79.40
60287;DHT22;46141;52.382;5.270;2022-08-19T13:10:49;26.10;79.50
60287;DHT22;46141;52.382;5.270;2022-08-19T13:13:14;26.20;79.20
60287;DHT22;46141;52.382;5.270;2022-08-19T13:15:41;26.20;79.90
60287;DHT22;46141;52.382;5.270;2022-08-19T13:18:09;26.10;80.40
60287;DHT22;46141;52.382;5.270;2022-08-19T13:20:36;26.10;80.50
60287;DHT22;46141;52.382;5.270;2022-08-19T13:23:02;26.10;81.00
60287;DHT22;46141;52.382;5.270;2022-08-19T13:25:28;26.20;81.20
60287;DHT22;46141;52.382;5.270;2022-08-19T13:27:54;26.20;81.70
60287;DHT22;46141;52.382;5.270;2022-08-19T13:30:20;26.20;81.40
60287;DHT22;46141;52.382;5.270;2022-08-19T13:32:46;26.20;81.50
60287;DHT22;46141;52.382;5.270;2022-08-19T13:35:11;26.20;81.50
60287;DHT22;46141;52.382;5.270;2022-08-19T13:37:37;26.20;81.80
60287;DHT22;46141;52.382;5.270;2022-08-19T13:40:02;26.20;81.60
60287;DHT22;46141;52.382;5.270;2022-08-19T13:42:28;26.20;81.80
60287;DHT22;46141;52.382;5.270;2022-08-19T13:44:54;26.20;82.00
60287;DHT22;46141;52.382;5.270;2022-08-19T13:47:19;26.20;82.00
60287;DHT22;46141;52.382;5.270;2022-08-19T13:49:45;26.20;82.20
60287;DHT22;46141;52.382;5.270;2022-08-19T13:52:10;26.20;82.20
60287;DHT22;46141;52.382;5.270;2022-08-19T13:54:36;26.30;82.50
60287;DHT22;46141;52.382;5.270;2022-08-19T13:57:01;26.20;82.40
60287;DHT22;46141;52.382;5.270;2022-08-19T13:59:27;26.30;82.30
60287;DHT22;46141;52.382;5.270;2022-08-19T14:01:56;26.20;82.20
60287;DHT22;46141;52.382;5.270;2022-08-19T14:04:22;26.20;82.00
60287;DHT22;46141;52.382;5.270;2022-08-19T14:06:47;26.20;82.20
60287;DHT22;46141;52.382;5.270;2022-08-19T14:09:13;26.30;82.40
60287;DHT22;46141;52.382;5.270;2022-08-19T14:11:38;26.30;82.30
60287;DHT22;46141;52.382;5.270;2022-08-19T14:14:04;26.30;82.20
60287;DHT22;46141;52.382;5.270;2022-08-19T14:16:29;26.30;82.40
60287;DHT22;46141;52.382;5.270;2022-08-19T14:18:55;26.30;82.00
60287;DHT22;46141;52.382;5.270;2022-08-19T14:21:24;26.30;81.70
60287;DHT22;46141;52.382;5.270;2022-08-19T14:23:50;26.30;81.60
60287;DHT22;46141;52.382;5.270;2022-08-19T14:26:19;26.40;81.60
60287;DHT22;46141;52.382;5.270;2022-08-19T14:28:45;26.30;81.50
60287;DHT22;46141;52.382;5.270;2022-08-19T14:31:12;26.40;81.70
60287;DHT22;46141;52.382;5.270;2022-08-19T14:33:39;26.30;81.40
60287;DHT22;46141;52.382;5.270;2022-08-19T14:36:05;26.40;81.30
60287;DHT22;46141;52.382;5.270;2022-08-19T14:38:30;26.30;81.20
60287;DHT22;46141;52.382;5.270;2022-08-19T14:40:56;26.30;81.10
60287;DHT22;46141;52.382;5.270;2022-08-19T14:43:21;26.30;80.80
60287;DHT22;46141;52.382;5.270;2022-08-19T14:45:47;26.30;79.40
60287;DHT22;46141;52.382;5.270;2022-08-19T14:48:12;26.30;78.70
60287;DHT22;46141;52.382;5.270;2022-08-19T14:50:38;26.30;78.00
60287;DHT22;46141;52.382;5.270;2022-08-19T14:53:07;26.30;78.10
60287;DHT22;46141;52.382;5.270;2022-08-19T14:55:34;26.30;78.20
60287;DHT22;46141;52.382;5.270;2022-08-19T14:57:59;26.30;78.00
60287;DHT22;46141;52.382;5.270;2022-08-19T15:00:25;26.30;77.60
60287;DHT22;46141;52.382;5.270;2022-08-19T15:02:51;26.40;77.60
60287;DHT22;46141;52.382;5.270;2022-08-19T15:05:17;26.40;77.20
60287;DHT22;46141;52.382;5.270;2022-08-19T15:07:43;26.40;77.10
60287;DHT22;46141;52.382;5.270;2022-08-19T15:10:11;26.40;77.10
60287;DHT22;46141;52.382;5.270;2022-08-19T15:12:39;26.40;77.30
60287;DHT22;46141;52.382;5.270;2022-08-19T15:15:04;26.30;77.60
60287;DHT22;46141;52.382;5.270;2022-08-19T15:17:30;26.40;77.90
60287;DHT22;46141;52.382;5.270;2022-08-19T15:19:56;26.40;77.70
60287;DHT22;46141;52.382;5.270;2022-08-19T15:22:21;26.40;77.80
60287;DHT22;46141;52.382;5.270;2022-08-19T15:24:47;26.40;78.00
60287;DHT22;46141;52.382;5.270;2022-08-19T15:27:13;26.40;77.90
60287;DHT22;46141;52.382;5.270;2022-08-19T15:29:40;26.30;77.80
60287;DHT22;46141;52.382;5.270;2022-08-19T15:32:07;26.40;77.80
60287;DHT22;46141;52.382;5.270;2022-08-19T15:34:33;26.40;78.20